Terminal Aerodrome Forecast
Issued by NWS Tampa Bay Area, FL

Home | Current Version | Previous Version | Text Only | Print | Product List | Glossary On
Versions: 1 2 3 4 5 6 7 8 9 10 11 12 13 14 15 16 17 18 19 20 21 22 23 24 25 26
000
FTUS42 KTBW 231400 AAA
TAFTPA
TAF AMD
KTPA 231458Z 2315/2412 16012G18KT P6SM SCT015
     FM231800 18012G18KT P6SM SCT025 BKN070
     FM232300 18008KT P6SM SCT025 BKN070
     FM240300 17006KT P6SM SCT015 BKN070
     FM240700 17005KT 4SM BR SCT005 BKN010=

USA.gov is the U.S. government's official web portal to all federal, state and local government web resources and services.